createdAt,value
2019-05-18T00:01:03.226Z,44.15
2019-05-18T00:06:07.905Z,42.80
2019-05-18T00:11:14.505Z,45.78
2019-05-18T00:16:21.169Z,43.02
2019-05-18T00:21:28.064Z,42.15
2019-05-18T00:26:36.188Z,43.35
2019-05-18T00:31:49.397Z,43.38
2019-05-18T00:41:58.144Z,42.78
2019-05-18T00:47:03.907Z,42.88
2019-05-18T00:52:08.417Z,41.98
2019-05-18T00:57:16.327Z,41.08
2019-05-18T01:02:21.895Z,43.63
2019-05-18T01:07:26.553Z,41.68
2019-05-18T01:12:38.350Z,42.85
2019-05-18T01:17:56.409Z,42.67
2019-05-18T01:22:50.945Z,40.50
2019-05-18T01:27:55.602Z,42.93
2019-05-18T01:33:03.701Z,40.95
2019-05-18T01:38:11.940Z,41.42
2019-05-18T01:43:17.243Z,42.27
2019-05-18T01:48:23.284Z,39.30
2019-05-18T01:53:29.519Z,42.35
2019-05-18T01:58:34.209Z,40.78
2019-05-18T02:03:39.279Z,39.53
2019-05-18T02:09:04.999Z,42.43
2019-05-18T02:14:09.694Z,39.90
2019-05-18T02:19:15.518Z,40.95
2019-05-18T02:24:22.089Z,43.60
2019-05-18T02:29:29.309Z,43.17
2019-05-18T02:34:33.854Z,41.55
2019-05-18T02:39:38.498Z,43.05
2019-05-18T02:44:44.807Z,42.35
2019-05-18T02:49:49.347Z,42.10
2019-05-18T02:55:01.143Z,40.40
2019-05-18T03:00:10.814Z,40.73
2019-05-18T03:05:15.800Z,44.75
2019-05-18T03:10:22.111Z,44.40
2019-05-18T03:15:26.826Z,47.15
2019-05-18T03:20:31.406Z,47.23
2019-05-18T03:25:37.240Z,46.95
2019-05-18T03:30:42.456Z,45.60
2019-05-18T03:35:47.757Z,43.73
2019-05-18T03:40:52.330Z,43.60
2019-05-18T03:45:56.873Z,44.33
2019-05-18T03:51:01.609Z,45.83
2019-05-18T03:56:07.945Z,47.40
2019-05-18T04:01:12.519Z,45.92
2019-05-18T04:06:17.131Z,45.92
2019-05-18T04:11:23.480Z,43.78
2019-05-18T04:16:28.940Z,44.35
2019-05-18T04:21:33.481Z,43.70
2019-05-18T04:26:38.490Z,43.28
2019-05-18T04:31:43.566Z,46.28
2019-05-18T04:36:49.885Z,46.65
2019-05-18T04:42:00.345Z,46.23
2019-05-18T04:47:07.430Z,45.85
2019-05-18T04:52:19.759Z,45.38
2019-05-18T04:57:33.295Z,47.50
2019-05-18T05:02:40.782Z,47.78
2019-05-18T05:07:49.141Z,46.75
2019-05-18T05:12:55.973Z,49.93
2019-05-18T05:18:01.586Z,49.30
2019-05-18T05:23:08.826Z,49.50
2019-05-18T05:28:26.254Z,54.55
2019-05-18T05:33:30.894Z,50.85
2019-05-18T05:38:35.691Z,54.33
2019-05-18T05:43:40.169Z,53.20
2019-05-18T05:48:47.000Z,53.92
2019-05-18T05:53:51.444Z,54.77
2019-05-18T05:58:55.844Z,53.98
2019-05-18T06:04:00.226Z,51.18
2019-05-18T06:09:06.543Z,50.73
2019-05-18T06:14:10.945Z,51.40
2019-05-18T06:19:15.344Z,51.50
2019-05-18T06:24:19.903Z,49.25
2019-05-18T06:29:24.289Z,48.78
2019-05-18T06:34:28.862Z,49.38
2019-05-18T06:39:33.341Z,49.33
2019-05-18T06:44:37.738Z,48.60
2019-05-18T06:49:42.196Z,47.38
2019-05-18T06:54:46.614Z,47.20
2019-05-18T06:59:51.199Z,49.30
2019-05-18T07:04:55.615Z,49.58
2019-05-18T07:10:00.031Z,48.87
2019-05-18T07:15:07.023Z,47.17
2019-05-18T07:20:13.723Z,45.10
2019-05-18T07:25:18.276Z,49.05
2019-05-18T07:30:22.655Z,47.98
2019-05-18T07:35:27.062Z,50.23
2019-05-18T07:40:31.518Z,49.25
2019-05-18T07:45:35.966Z,48.92
2019-05-18T07:50:40.368Z,48.55
2019-05-18T07:55:44.769Z,46.80
2019-05-18T08:00:49.156Z,46.45
2019-05-18T08:05:53.681Z,47.67
2019-05-18T08:10:58.164Z,46.60
2019-05-18T08:16:02.629Z,46.90
2019-05-18T08:21:07.014Z,44.10
2019-05-18T08:26:11.451Z,44.80
2019-05-18T08:31:17.380Z,44.38
2019-05-18T08:36:21.816Z,45.80
2019-05-18T08:41:26.239Z,44.27
2019-05-18T08:46:30.748Z,44.55
2019-05-18T08:51:35.152Z,47.48
2019-05-18T08:56:39.680Z,45.33
2019-05-18T09:01:44.070Z,43.00
2019-05-18T09:06:48.621Z,43.83
2019-05-18T09:11:52.987Z,40.40
2019-05-18T09:16:57.384Z,39.18
2019-05-18T09:22:01.777Z,40.05
2019-05-18T09:27:06.199Z,39.88
2019-05-18T09:32:10.580Z,39.45
2019-05-18T09:37:14.988Z,41.28
2019-05-18T09:42:19.463Z,38.65
2019-05-18T09:47:23.861Z,38.38
2019-05-18T09:52:44.142Z,39.42
2019-05-18T09:57:34.368Z,37.63
2019-05-18T10:02:38.837Z,37.25
2019-05-18T10:07:43.344Z,38.17
2019-05-18T10:12:47.772Z,35.78
2019-05-18T10:17:52.168Z,34.88
2019-05-18T10:23:11.893Z,34.15
2019-05-18T10:28:02.699Z,35.25
2019-05-18T10:33:07.178Z,33.55
2019-05-18T10:38:11.714Z,36.63
2019-05-18T10:43:16.130Z,33.70
2019-05-18T10:48:20.561Z,32.98
2019-05-18T10:53:28.616Z,33.98
2019-05-18T10:58:41.483Z,34.23
2019-05-18T11:03:45.891Z,31.55
2019-05-18T11:08:50.288Z,28.98
2019-05-18T11:13:56.979Z,29.98
2019-05-18T11:19:01.541Z,29.72
2019-05-18T11:24:06.676Z,26.95
2019-05-18T11:29:11.085Z,25.92
2019-05-18T11:34:15.479Z,23.38
2019-05-18T11:39:19.932Z,25.80
2019-05-18T11:44:24.467Z,22.20
2019-05-18T11:49:29.300Z,21.20
2019-05-18T11:54:34.246Z,21.02
2019-05-18T11:59:38.666Z,23.45
2019-05-18T12:04:56.778Z,24.52
2019-05-18T12:10:01.195Z,24.52
2019-05-18T12:15:12.307Z,24.30
2019-05-18T12:20:17.253Z,24.80
2019-05-18T12:25:21.876Z,24.92
2019-05-18T12:30:26.969Z,23.83
2019-05-18T12:35:31.459Z,25.10
2019-05-18T12:40:35.832Z,22.70
2019-05-18T12:45:41.921Z,22.98
2019-05-18T12:50:46.337Z,23.70
2019-05-18T12:55:50.809Z,21.70
2019-05-18T13:00:55.201Z,23.25
2019-05-18T13:05:59.584Z,22.70
2019-05-18T13:11:04.064Z,23.32
2019-05-18T13:16:10.062Z,23.98
2019-05-18T13:21:14.547Z,24.25
2019-05-18T13:26:18.991Z,23.80
2019-05-18T13:31:23.402Z,23.30
2019-05-18T13:36:27.792Z,23.07
2019-05-18T13:41:32.211Z,21.60
2019-05-18T13:46:38.131Z,21.48
2019-05-18T13:51:42.556Z,20.50
2019-05-18T13:56:46.939Z,17.32
2019-05-18T14:01:51.328Z,18.75
2019-05-18T14:06:55.885Z,18.05
2019-05-18T14:12:00.295Z,20.70
2019-05-18T14:17:04.695Z,19.82
2019-05-18T14:22:09.086Z,19.67
2019-05-18T14:27:13.488Z,21.15
2019-05-18T14:32:17.884Z,20.08
2019-05-18T14:37:22.489Z,21.33
2019-05-18T14:42:26.862Z,22.05
2019-05-18T14:47:31.362Z,21.73
2019-05-18T14:52:35.994Z,21.50
2019-05-18T14:57:40.510Z,20.35
2019-05-18T15:02:44.969Z,20.92
2019-05-18T15:07:49.511Z,21.07
2019-05-18T15:12:53.927Z,20.90
2019-05-18T15:17:58.376Z,22.48
2019-05-18T15:23:02.875Z,21.95
2019-05-18T15:28:07.348Z,21.48
2019-05-18T15:33:11.756Z,21.73
2019-05-18T15:38:16.162Z,22.20
2019-05-18T15:43:20.640Z,22.60
2019-05-18T15:48:25.143Z,23.77
2019-05-18T15:53:29.720Z,24.50
2019-05-18T15:58:34.111Z,26.17
2019-05-18T16:03:38.500Z,24.52
2019-05-18T16:08:42.887Z,24.85
2019-05-18T16:13:47.316Z,24.47
2019-05-18T16:18:51.809Z,25.30
2019-05-18T16:23:56.213Z,24.23
2019-05-18T16:29:00.881Z,24.85
2019-05-18T16:34:08.108Z,23.67
2019-05-18T16:39:12.661Z,27.15
2019-05-18T16:44:17.160Z,27.65
2019-05-18T16:49:21.579Z,28.65
2019-05-18T16:54:26.376Z,28.98
2019-05-18T16:59:30.769Z,28.38
2019-05-18T17:04:35.219Z,27.35
2019-05-18T17:09:39.860Z,26.42
2019-05-18T17:14:44.258Z,27.10
2019-05-18T17:19:48.672Z,25.75
2019-05-18T17:24:53.127Z,26.35
2019-05-18T17:29:57.565Z,25.12
2019-05-18T17:35:02.034Z,25.70
2019-05-18T17:40:06.957Z,27.90
2019-05-18T17:45:12.401Z,26.00
2019-05-18T17:50:17.723Z,24.63
2019-05-18T17:55:24.024Z,25.15
2019-05-18T18:00:28.571Z,25.50
2019-05-18T18:05:32.999Z,33.00
2019-05-18T18:10:38.971Z,37.95
2019-05-18T18:15:43.408Z,43.52
2019-05-18T18:20:48.218Z,45.25
2019-05-18T18:25:52.616Z,46.90
2019-05-18T18:30:57.184Z,46.85
2019-05-18T18:36:01.582Z,47.33
2019-05-18T18:41:05.973Z,45.98
2019-05-18T18:46:10.356Z,44.18
2019-05-18T18:51:14.809Z,44.00
2019-05-18T18:56:19.189Z,50.63
2019-05-18T19:01:25.202Z,53.40
2019-05-18T19:06:29.758Z,53.50
2019-05-18T19:11:34.158Z,54.10
2019-05-18T19:16:38.875Z,54.53
2019-05-18T19:21:43.296Z,55.30
2019-05-18T19:26:47.703Z,54.88
2019-05-18T19:31:52.224Z,55.50
2019-05-18T19:36:58.837Z,56.80
2019-05-18T19:42:03.284Z,54.83
2019-05-18T19:47:07.726Z,57.03
2019-05-18T19:52:12.344Z,55.33
2019-05-18T19:57:16.722Z,59.40
2019-05-18T20:02:21.204Z,58.05
2019-05-18T20:07:25.589Z,60.25
2019-05-18T20:13:26.843Z,60.90
2019-05-18T20:17:47.619Z,62.43
2019-05-18T20:22:58.608Z,60.03
2019-05-18T20:28:22.885Z,63.55
2019-05-18T20:33:24.330Z,62.60
2019-05-18T20:38:40.570Z,64.35
2019-05-18T20:45:07.129Z,64.65
2019-05-18T20:49:52.529Z,67.25
2019-05-18T20:54:49.863Z,67.97
2019-05-18T21:01:01.535Z,68.30
2019-05-18T21:11:05.770Z,70.22
2019-05-18T21:16:13.668Z,69.27
2019-05-18T21:21:25.433Z,69.10
2019-05-18T21:26:38.934Z,69.95
2019-05-18T21:31:46.087Z,68.92
2019-05-18T21:36:54.959Z,69.77
2019-05-18T21:42:06.815Z,70.55
2019-05-18T21:47:13.455Z,69.45
2019-05-18T21:52:21.752Z,70.03
2019-05-18T21:57:27.988Z,67.15
2019-05-18T22:02:34.171Z,68.85
2019-05-18T22:07:38.856Z,68.35
2019-05-18T22:12:45.151Z,66.07
2019-05-18T22:18:05.004Z,64.17
2019-05-18T22:23:09.729Z,66.10
2019-05-18T22:28:18.647Z,65.97
2019-05-18T22:33:28.951Z,65.65
2019-05-18T22:38:29.697Z,65.50
2019-05-18T22:43:34.417Z,66.33
2019-05-18T22:48:41.610Z,67.55
2019-05-18T22:53:50.922Z,65.42
2019-05-18T22:58:57.374Z,65.42
2019-05-18T23:04:03.742Z,66.33
2019-05-18T23:09:11.583Z,67.78
2019-05-18T23:14:19.220Z,67.55
2019-05-18T23:19:25.459Z,66.15
2019-05-18T23:24:30.055Z,67.55
2019-05-18T23:29:38.630Z,67.80
2019-05-18T23:34:43.199Z,68.40
2019-05-18T23:39:49.414Z,70.25
2019-05-18T23:44:56.766Z,68.37
2019-05-18T23:50:01.394Z,68.33
2019-05-18T23:55:07.658Z,70.72
